Latest Weather Observations for Tewantin

IDQ60801

Issued at 12:32 pm EST Thursday 28 July 2016 (issued every 30 minutes, with the page automatically refreshed every 10 minutes)

About weather observations | Map of weather stations | Latest weather observations for QLD | Other Formats
Station Details ID: 040908 Name: TEWANTIN RSL PARK Lat: -26.39 Lon: 153.04 Height: 6.4 m
Data from the previous 72 hours. | See also: Recent months at Tewantin
Date/Time
EST
Temp
°C
App
Temp
°C
Dew
Point
°C
Rel
Hum
%
Delta-T
°C
Wind Press
QNH
hPa
Press
MSL
hPa
Rain since
9am
mm
Dir  Spd
km/h
Gust
km/h
Spd
kts
Gust
kts
28/12:30pm 20.6 18.4 7.9 44 6.5 S 9 17 5 9 1022.4 1022.4 0.0
28/12:00pm 20.7 18.1 7.7 43 6.7 S 11 19 6 10 1022.8 1022.8 0.0
28/11:30am 21.0 17.9 7.3 41 7.0 SSW 13 20 7 11 1023.2 1023.2 0.0
28/11:00am 20.5 17.7 6.8 41 6.9 SSW 11 19 6 10 1023.7 1023.7 0.0
28/10:30am 19.9 17.1 7.0 43 6.5 SSW 11 17 6 9 1023.9 1023.9 0.0
28/10:00am 18.6 15.1 5.5 42 6.4 SSW 13 22 7 12 1024.0 1024.0 0.0
28/09:30am 17.7 14.2 5.6 45 5.9 SSW 13 22 7 12 1023.9 1023.9 0.0
28/09:00am 16.6 14.1 6.7 52 4.9 SSW 9 13 5 7 1023.8 1023.8 0.0
28/08:30am 14.3 14.0 8.5 68 2.9 CALM 0 0 0 0 1023.6 1023.6 0.0
28/08:00am 11.7 11.4 8.6 81 1.5 CALM 0 0 0 0 1023.4 1023.4 0.0
28/07:30am 9.7 9.3 8.1 90 0.8 CALM 0 0 0 0 1023.0 1023.0 0.0
28/07:00am 7.5 6.7 6.6 94 0.4 CALM 0 0 0 0 1022.5 1022.5 0.0
28/06:30am 6.9 5.9 5.7 92 0.5 CALM 0 0 0 0 1022.2 1022.2 0.0
28/06:00am 7.2 6.2 5.8 91 0.6 CALM 0 0 0 0 1022.1 1022.1 0.0
28/05:30am 7.5 6.6 6.1 91 0.6 CALM 0 0 0 0 1021.8 1021.8 0.0
28/05:00am 7.9 7.2 7.1 95 0.4 CALM 0 0 0 0 1021.3 1021.3 0.0
28/04:30am 8.0 7.4 7.2 95 0.4 CALM 0 0 0 0 1021.2 1021.2 0.0
28/04:00am 8.1 7.4 6.9 92 0.6 CALM 0 0 0 0 1021.3 1021.3 0.0
28/03:30am 8.2 7.4 6.5 89 0.8 CALM 0 0 0 0 1021.4 1021.4 0.0
28/03:00am 8.3 7.7 7.4 94 0.4 CALM 0 0 0 0 1021.6 1021.6 0.0
28/02:30am 8.1 7.3 6.4 89 0.8 CALM 0 0 0 0 1021.6 1021.6 0.0
28/02:00am 8.6 7.8 6.6 87 0.9 CALM 0 0 0 0 1021.7 1021.7 0.0
28/01:30am 8.8 7.7 6.8 87 0.9 WSW 2 6 1 3 1021.9 1021.9 0.0
28/01:00am 8.9 8.3 7.4 90 0.7 CALM 0 0 0 0 1021.9 1021.9 0.0
28/12:30am 9.8 9.3 7.9 88 0.9 CALM 0 0 0 0 1021.8 1021.8 0.0
28/12:00am 10.0 9.8 9.1 94 0.4 CALM 0 0 0 0 1021.6 1021.6 0.0
 
Date/Time
EST
Temp
°C
App
Temp
°C
Dew
Point
°C
Rel
Hum
%
Delta-T
°C
Wind Press
QNH
hPa
Press
MSL
hPa
Rain since
9am
mm
Dir  Spd
km/h
Gust
km/h
Spd
kts
Gust
kts
27/11:30pm 10.0 8.0 7.3 83 1.3 SW 7 11 4 6 1021.6 1021.6 0.0
27/11:00pm 10.5 8.7 7.9 84 1.3 SW 7 9 4 5 1021.7 1021.7 0.0
27/10:30pm 10.6 10.3 8.5 87 1.0 CALM 0 0 0 0 1021.7 1021.7 0.0
27/10:00pm 10.7 10.4 8.5 86 1.1 CALM 0 0 0 0 1021.3 1021.3 0.0
27/09:30pm 11.1 9.8 7.6 79 1.7 SW 4 7 2 4 1020.9 1020.9 0.0
27/09:00pm 12.6 11.8 8.3 75 2.1 NNW 2 7 1 4 1020.6 1020.6 0.0
27/08:30pm 12.7 13.3 11.8 94 0.5 CALM 0 0 0 0 1020.4 1020.4 0.0
27/08:00pm 13.2 12.7 10.9 86 1.2 SE 4 7 2 4 1020.1 1020.1 0.0
27/07:30pm 13.6 13.5 9.3 75 2.2 CALM 0 0 0 0 1019.7 1019.7 0.0
27/07:00pm 14.2 13.8 11.0 81 1.7 SSW 4 7 2 4 1019.4 1019.4 0.0
27/06:30pm 14.7 15.1 11.1 79 1.9 CALM 0 0 0 0 1019.2 1019.2 0.0
27/06:00pm 15.3 15.5 10.7 74 2.4 CALM 0 0 0 0 1018.4 1018.4 0.0
27/05:30pm 16.1 15.7 8.3 60 4.0 CALM 0 0 0 0 1018.0 1018.0 0.0
27/05:00pm 17.5 16.2 6.1 47 5.6 WSW 2 6 1 3 1017.6 1017.6 0.0
27/04:30pm 18.3 16.9 7.1 48 5.6 WSW 4 7 2 4 1017.5 1017.5 0.0
27/04:00pm 18.5 16.7 7.0 47 5.8 SW 6 7 3 4 1017.5 1017.5 0.0
27/03:30pm 18.9 16.8 5.7 42 6.5 WSW 6 9 3 5 1017.2 1017.2 0.0
27/03:00pm 19.4 17.4 6.2 42 6.5 WSW 6 11 3 6 1017.1 1017.1 0.0
27/02:30pm 19.4 17.2 5.5 40 6.8 WSW 6 13 3 7 1017.3 1017.3 0.0
27/02:00pm 19.6 16.5 5.6 40 6.9 WSW 11 24 6 13 1017.5 1017.5 0.0
27/01:30pm 20.0 17.2 5.3 38 7.2 WSW 9 15 5 8 1017.7 1017.7 0.0
27/01:00pm 19.9 17.1 5.2 38 7.2 W 9 15 5 8 1017.9 1017.9 0.0
27/12:30pm 20.4 17.9 6.4 40 7.0 W 9 17 5 9 1018.0 1018.0 0.0
27/12:00pm 21.0 18.2 5.0 35 7.8 SW 9 17 5 9 1018.3 1018.3 0.0
27/11:30am 21.4 19.3 5.7 36 7.8 WSW 6 13 3 7 1018.5 1018.5 0.0
27/11:00am 20.6 17.9 5.4 37 7.5 WSW 9 19 5 10 1019.3 1019.3 0.0
27/10:30am 20.7 17.6 5.5 37 7.5 SW 11 19 6 10 1019.6 1019.6 0.0
27/10:00am 20.6 18.3 7.6 43 6.7 SW 9 15 5 8 1019.4 1019.4 0.0
27/09:30am 18.7 16.4 7.5 48 5.7 NNW 9 13 5 7 1019.5 1019.5 0.0
27/09:00am 18.9 17.2 7.7 48 5.7 WNW 6 11 3 6 1019.6 1019.6 0.0
27/08:30am 17.2 15.6 8.9 58 4.3 NW 7 9 4 5 1019.4 1019.4 0.0
27/08:00am 15.0 14.3 8.7 66 3.2 NW 2 7 1 4 1019.3 1019.3 0.0
27/07:30am 13.3 12.2 8.4 72 2.4 NNW 4 6 2 3 1019.0 1019.0 0.0
27/07:00am 13.1 11.4 7.5 69 2.7 WNW 6 9 3 5 1019.4 1019.4 0.0
27/06:30am 12.9 12.4 7.8 71 2.5 CALM 0 0 0 0 1019.0 1019.0 0.0
27/06:00am 13.3 12.3 7.3 67 2.9 WNW 2 7 1 4 1019.2 1019.2 0.0
27/05:30am 13.6 13.1 7.8 68 2.9 CALM 0 6 0 3 1018.7 1018.7 0.0
27/05:00am 13.1 12.4 8.4 73 2.3 NW 2 6 1 3 1018.6 1018.6 0.0
27/04:30am 13.3 12.9 8.2 71 2.5 CALM 0 2 0 1 1018.3 1018.3 0.0
27/04:00am 13.6 12.0 7.8 68 2.9 NW 6 9 3 5 1017.7 1017.7 0.0
27/03:30am 14.2 12.5 7.5 64 3.3 NNW 6 7 3 4 1017.6 1017.6 0.0
27/03:00am 14.4 13.3 6.7 60 3.7 NNW 2 6 1 3 1018.0 1018.0 0.0
27/02:30am 14.0 12.9 8.4 69 2.8 NW 4 11 2 6 1018.0 1018.0 0.0
27/02:00am 14.2 12.5 8.4 68 2.9 W 7 11 4 6 1018.2 1018.2 0.0
27/01:30am 14.1 12.8 9.3 73 2.5 NW 6 7 3 4 1017.8 1017.8 0.0
27/01:00am 13.7 13.0 9.9 78 2.0 N 4 7 2 4 1018.3 1018.3 0.0
27/12:30am 13.7 13.7 9.7 77 2.1 CALM 0 0 0 0 1018.5 1018.5 0.0
27/12:00am 14.0 13.2 9.6 75 2.3 W 4 9 2 5 1018.4 1018.4 0.0
 
Date/Time
EST
Temp
°C
App
Temp
°C
Dew
Point
°C
Rel
Hum
%
Delta-T
°C
Wind Press
QNH
hPa
Press
MSL
hPa
Rain since
9am
mm
Dir  Spd
km/h
Gust
km/h
Spd
kts
Gust
kts
26/11:30pm 14.2 13.5 10.2 77 2.1 NNW 4 7 2 4 1018.4 1018.4 0.0
26/11:00pm 14.1 13.9 10.5 79 1.9 NW 2 6 1 3 1018.4 1018.4 0.0
26/10:30pm 13.7 13.8 10.3 80 1.8 CALM 0 6 0 3 1018.5 1018.5 0.0
26/10:00pm 14.1 13.0 9.9 76 2.2 NW 6 7 3 4 1018.5 1018.5 0.0
26/09:30pm 14.0 13.9 9.6 75 2.3 CALM 0 0 0 0 1018.3 1018.3 0.0
26/09:00pm 14.4 14.6 10.6 78 2.0 CALM 0 0 0 0 1018.1 1018.1 0.0
26/08:30pm 14.5 13.9 10.3 76 2.2 WSW 4 6 2 3 1018.4 1018.4 0.0
26/08:00pm 14.4 14.2 10.4 77 2.1 WNW 2 7 1 4 1018.3 1018.3 0.0
26/07:30pm 14.8 14.5 10.2 74 2.4 SSW 2 6 1 3 1017.9 1017.9 0.0
26/07:00pm 15.1 15.3 10.5 74 2.4 CALM 0 0 0 0 1017.7 1017.7 0.0
26/06:30pm 15.6 15.9 11.0 74 2.5 CALM 0 6 0 3 1017.3 1017.3 0.0
26/06:00pm 16.3 16.6 10.8 70 2.9 CALM 0 0 0 0 1017.0 1017.0 0.0
26/05:30pm 16.8 16.8 11.3 70 3.0 NE 2 7 1 4 1016.9 1016.9 0.0
26/05:00pm 17.1 16.8 8.8 58 4.3 CALM 0 0 0 0 1017.1 1017.1 0.0
26/04:30pm 17.8 17.1 8.4 54 4.8 NW 2 6 1 3 1016.7 1016.7 0.0
26/04:00pm 18.5 17.0 6.7 46 5.9 WNW 4 7 2 4 1016.8 1016.8 0.0
26/03:30pm 19.3 18.1 6.4 43 6.4 W 2 7 1 4 1016.5 1016.5 0.0
26/03:00pm 19.7 18.0 6.1 41 6.8 W 4 9 2 5 1016.7 1016.7 0.0
26/02:30pm 19.8 17.6 5.1 38 7.2 WNW 6 9 3 5 1016.7 1016.7 0.0
26/02:00pm 20.2 18.0 5.4 38 7.3 SSW 6 9 3 5 1017.0 1017.0 0.0
26/01:30pm 21.1 18.9 6.2 38 7.5 SSW 7 15 4 8 1017.3 1017.3 0.0
26/01:00pm 19.1 17.7 7.2 46 6.0 N 4 7 2 4 1017.6 1017.6 0.0
26/12:30pm 19.0 17.2 7.1 46 6.0 NW 6 9 3 5 1018.1 1018.1 0.0
26/12:00pm 18.7 16.5 6.2 44 6.2 WSW 7 11 4 6 1018.8 1018.8 0.0
26/11:30am 17.8 15.2 4.4 41 6.4 WSW 7 13 4 7 1019.3 1019.3 0.0
26/11:00am 17.9 15.8 6.7 48 5.5 W 7 15 4 8 1019.9 1019.9 0.0
26/10:30am 17.1 15.2 7.5 53 4.8 SW 7 11 4 6 1019.9 1019.9 0.0
26/10:00am 16.3 14.3 7.3 55 4.5 WSW 7 13 4 7 1020.1 1020.1 0.0
26/09:30am 15.9 14.0 6.6 54 4.5 W 6 11 3 6 1019.9 1019.9 0.0
26/09:00am 14.7 13.2 8.4 66 3.2 NW 6 7 3 4 1019.9 1019.9 0.0
26/08:30am 13.8 12.0 7.3 65 3.2 WNW 6 9 3 5 1019.9 1019.9 0.0
26/08:00am 13.6 11.8 7.2 65 3.1 W 6 7 3 4 1019.8 1019.8 0.0
26/07:30am 11.0 10.3 7.1 77 1.9 CALM 0 7 0 4 1020.0 1020.0 0.0
26/07:00am 9.0 7.8 6.6 85 1.1 NW 2 7 1 4 1019.5 1019.5 0.0
26/06:30am 8.5 7.3 6.3 86 1.0 NW 2 9 1 5 1019.4 1019.4 0.0
26/06:00am 8.7 7.7 7.5 92 0.6 NW 2 9 1 5 1018.9 1018.9 0.0
26/05:30am 9.0 7.4 6.3 83 1.2 WSW 4 7 2 4 1018.9 1018.9 0.0
26/05:00am 9.7 7.7 6.4 80 1.5 WSW 6 7 3 4 1018.5 1018.5 0.0
26/04:30am 9.2 8.4 6.6 84 1.2 CALM 0 0 0 0 1018.2 1018.2 0.0
26/04:00am 9.4 8.2 6.3 81 1.4 WSW 2 6 1 3 1018.0 1018.0 0.0
26/03:30am 9.3 7.8 6.9 85 1.1 SW 4 7 2 4 1018.0 1018.0 0.0
26/03:00am 9.5 8.8 6.9 84 1.2 CALM 0 0 0 0 1018.2 1018.2 0.0
26/02:30am 9.9 9.1 8.3 90 0.8 NNW 2 7 1 4 1018.0 1018.0 0.0
26/02:00am 9.8 8.3 8.6 92 0.6 SW 6 9 3 5 1018.4 1018.4 0.0
26/01:30am 10.1 9.8 8.7 91 0.7 CALM 0 0 0 0 1018.5 1018.5 0.0
26/01:00am 9.7 9.0 8.6 93 0.5 WSW 2 7 1 4 1019.0 1019.0 0.0
26/12:30am 10.1 9.1 8.7 91 0.7 W 4 9 2 5 1018.9 1018.9 0.0
26/12:00am 10.7 9.5 10.4 98 0.2 NNW 7 11 4 6 1018.5 1018.5 0.0
 
Date/Time
EST
Temp
°C
App
Temp
°C
Dew
Point
°C
Rel
Hum
%
Delta-T
°C
Wind Press
QNH
hPa
Press
MSL
hPa
Rain since
9am
mm
Dir  Spd
km/h
Gust
km/h
Spd
kts
Gust
kts
25/11:30pm 10.8 9.9 10.5 98 0.2 NNW 6 9 3 5 1018.8 1018.8 0.0
25/11:00pm 11.2 11.5 10.9 98 0.2 CALM 0 2 0 1 1018.6 1018.6 0.0
25/10:30pm 11.1 11.2 10.3 95 0.4 CALM 0 6 0 3 1018.7 1018.7 0.0
25/10:00pm 11.3 11.4 10.2 93 0.6 CALM 0 0 0 0 1018.5 1018.5 0.0
25/09:30pm 11.5 11.5 9.9 90 0.8 CALM 0 0 0 0 1018.4 1018.4 0.0
25/09:00pm 12.0 12.2 10.4 90 0.8 CALM 0 0 0 0 1018.5 1018.5 0.0
25/08:30pm 12.4 12.6 10.6 89 0.9 CALM 0 0 0 0 1018.0 1018.0 0.0
25/08:00pm 13.0 12.9 10.9 87 1.1 SSW 2 7 1 4 1018.0 1018.0 0.0
25/07:30pm 13.7 13.2 10.9 83 1.5 WSW 4 7 2 4 1017.8 1017.8 0.0
25/07:00pm 14.5 14.9 11.1 80 1.8 CALM 0 0 0 0 1017.6 1017.6 0.0
25/06:30pm 15.2 15.5 11.0 76 2.2 CALM 0 2 0 1 1017.1 1017.1 0.0
25/06:00pm 16.2 16.4 10.7 70 2.9 CALM 0 0 0 0 1016.7 1016.7 0.0
25/05:30pm 17.0 17.0 9.9 63 3.7 CALM 0 0 0 0 1016.4 1016.4 0.0
25/05:00pm 18.1 17.5 8.9 55 4.8 E 2 6 1 3 1016.2 1016.2 0.0
25/04:30pm 18.6 17.4 9.4 55 4.8 NE 6 9 3 5 1015.9 1015.9 0.0
25/04:00pm 19.3 17.7 8.9 51 5.4 NE 7 11 4 6 1015.6 1015.6 0.0
25/03:30pm 19.5 17.8 9.7 53 5.2 NE 9 13 5 7 1015.5 1015.5 0.0
25/03:00pm 19.7 18.0 9.9 53 5.2 NNE 9 15 5 8 1015.5 1015.5 0.0
25/02:30pm 20.6 18.4 7.9 44 6.6 NE 9 13 5 7 1015.6 1015.6 0.0
25/02:00pm 21.1 19.3 9.4 47 6.2 ENE 9 15 5 8 1015.7 1015.7 0.0
25/01:30pm 21.2 19.7 8.5 44 6.7 NE 6 13 3 7 1015.9 1015.9 0.0
25/01:00pm 21.4 18.7 5.7 36 7.8 N 9 13 5 7 1016.2 1016.2 0.0

Other Formats:

Comma delimited format used in spreadsheet applications
http://www.bom.gov.au/fwo/IDQ60801/IDQ60801.94570.axf

JavaScript Object Notation format (JSON) in row-major order
http://www.bom.gov.au/fwo/IDQ60801/IDQ60801.94570.json